sensor_id;sensor_type;location;lat;lon;timestamp;temperature;humidity
47805;DHT22;33568;45.286;9.900;2023-06-22T00:00:56;29.80;66.70
47805;DHT22;33568;45.286;9.900;2023-06-22T00:03:24;29.80;66.80
47805;DHT22;33568;45.286;9.900;2023-06-22T00:05:51;29.80;66.80
47805;DHT22;33568;45.286;9.900;2023-06-22T00:08:18;29.80;66.80
47805;DHT22;33568;45.286;9.900;2023-06-22T00:10:46;29.80;66.90
47805;DHT22;33568;45.286;9.900;2023-06-22T00:13:13;29.80;67.10
47805;DHT22;33568;45.286;9.900;2023-06-22T00:15:41;29.70;67.10
47805;DHT22;33568;45.286;9.900;2023-06-22T00:18:09;29.70;67.20
47805;DHT22;33568;45.286;9.900;2023-06-22T00:20:36;29.80;67.10
47805;DHT22;33568;45.286;9.900;2023-06-22T00:23:06;29.80;67.00
47805;DHT22;33568;45.286;9.900;2023-06-22T00:25:37;29.80;66.80
47805;DHT22;33568;45.286;9.900;2023-06-22T00:28:04;29.80;67.00
47805;DHT22;33568;45.286;9.900;2023-06-22T00:30:31;29.80;67.10
47805;DHT22;33568;45.286;9.900;2023-06-22T00:32:59;29.80;67.20
47805;DHT22;33568;45.286;9.900;2023-06-22T00:35:26;29.70;67.10
47805;DHT22;33568;45.286;9.900;2023-06-22T00:37:57;29.70;67.20
47805;DHT22;33568;45.286;9.900;2023-06-22T00:40:30;29.70;67.20
47805;DHT22;33568;45.286;9.900;2023-06-22T00:42:58;29.80;67.20
47805;DHT22;33568;45.286;9.900;2023-06-22T00:45:25;29.80;67.20
47805;DHT22;33568;45.286;9.900;2023-06-22T00:47:53;29.80;67.20
47805;DHT22;33568;45.286;9.900;2023-06-22T00:50:22;29.80;67.10
47805;DHT22;33568;45.286;9.900;2023-06-22T00:52:52;29.80;67.10
47805;DHT22;33568;45.286;9.900;2023-06-22T00:55:20;29.80;67.20
47805;DHT22;33568;45.286;9.900;2023-06-22T00:57:47;29.80;67.00
47805;DHT22;33568;45.286;9.900;2023-06-22T01:00:18;29.80;67.10
47805;DHT22;33568;45.286;9.900;2023-06-22T01:02:46;29.70;67.20
47805;DHT22;33568;45.286;9.900;2023-06-22T01:05:14;29.70;67.30
47805;DHT22;33568;45.286;9.900;2023-06-22T01:08:00;29.70;67.30
47805;DHT22;33568;45.286;9.900;2023-06-22T01:11:16;29.60;67.40
47805;DHT22;33568;45.286;9.900;2023-06-22T01:13:34;29.60;67.40
47805;DHT22;33568;45.286;9.900;2023-06-22T01:16:07;29.60;67.50
47805;DHT22;33568;45.286;9.900;2023-06-22T01:18:36;29.60;67.60
47805;DHT22;33568;45.286;9.900;2023-06-22T01:21:06;29.60;67.50
47805;DHT22;33568;45.286;9.900;2023-06-22T01:26:14;29.50;67.70
47805;DHT22;33568;45.286;9.900;2023-06-22T01:28:48;29.50;68.10
47805;DHT22;33568;45.286;9.900;2023-06-22T01:31:23;29.40;68.30
47805;DHT22;33568;45.286;9.900;2023-06-22T01:33:53;29.20;68.80
47805;DHT22;33568;45.286;9.900;2023-06-22T01:36:21;29.20;69.00
47805;DHT22;33568;45.286;9.900;2023-06-22T01:38:49;29.20;69.10
47805;DHT22;33568;45.286;9.900;2023-06-22T01:41:20;29.20;69.30
47805;DHT22;33568;45.286;9.900;2023-06-22T01:43:48;29.20;69.50
47805;DHT22;33568;45.286;9.900;2023-06-22T01:46:15;29.20;69.80
47805;DHT22;33568;45.286;9.900;2023-06-22T01:48:42;29.30;69.70
47805;DHT22;33568;45.286;9.900;2023-06-22T01:51:08;29.30;69.70
47805;DHT22;33568;45.286;9.900;2023-06-22T01:53:35;29.30;69.70
47805;DHT22;33568;45.286;9.900;2023-06-22T01:56:02;29.20;69.80
47805;DHT22;33568;45.286;9.900;2023-06-22T01:58:30;29.20;70.00
47805;DHT22;33568;45.286;9.900;2023-06-22T02:01:06;29.10;70.20
47805;DHT22;33568;45.286;9.900;2023-06-22T02:03:38;29.10;70.40
47805;DHT22;33568;45.286;9.900;2023-06-22T02:06:14;29.10;70.60
47805;DHT22;33568;45.286;9.900;2023-06-22T02:08:53;29.10;70.70
47805;DHT22;33568;45.286;9.900;2023-06-22T02:11:22;29.10;70.50
47805;DHT22;33568;45.286;9.900;2023-06-22T02:13:50;29.10;70.10
47805;DHT22;33568;45.286;9.900;2023-06-22T02:16:18;29.10;70.10
47805;DHT22;33568;45.286;9.900;2023-06-22T02:18:49;29.10;70.00
47805;DHT22;33568;45.286;9.900;2023-06-22T02:21:20;29.00;70.10
47805;DHT22;33568;45.286;9.900;2023-06-22T02:23:47;29.10;70.40
47805;DHT22;33568;45.286;9.900;2023-06-22T02:26:15;29.10;70.30
47805;DHT22;33568;45.286;9.900;2023-06-22T02:28:42;29.10;70.30
47805;DHT22;33568;45.286;9.900;2023-06-22T02:31:09;29.00;70.30
47805;DHT22;33568;45.286;9.900;2023-06-22T02:33:35;29.00;70.40
47805;DHT22;33568;45.286;9.900;2023-06-22T02:36:02;29.00;70.40
47805;DHT22;33568;45.286;9.900;2023-06-22T02:38:31;29.00;70.40
47805;DHT22;33568;45.286;9.900;2023-06-22T02:41:03;29.10;70.40
47805;DHT22;33568;45.286;9.900;2023-06-22T02:43:29;29.20;70.30
47805;DHT22;33568;45.286;9.900;2023-06-22T02:45:55;29.20;70.00
47805;DHT22;33568;45.286;9.900;2023-06-22T02:48:22;29.20;69.80
47805;DHT22;33568;45.286;9.900;2023-06-22T02:50:49;29.20;69.70
47805;DHT22;33568;45.286;9.900;2023-06-22T02:53:15;29.20;69.70
47805;DHT22;33568;45.286;9.900;2023-06-22T02:55:45;29.20;69.70
47805;DHT22;33568;45.286;9.900;2023-06-22T02:58:12;29.20;69.60
47805;DHT22;33568;45.286;9.900;2023-06-22T03:00:39;29.20;69.70
47805;DHT22;33568;45.286;9.900;2023-06-22T03:03:05;29.10;69.70
47805;DHT22;33568;45.286;9.900;2023-06-22T03:05:32;29.10;69.90
47805;DHT22;33568;45.286;9.900;2023-06-22T03:08:00;29.00;69.90
47805;DHT22;33568;45.286;9.900;2023-06-22T03:10:30;29.10;70.00
47805;DHT22;33568;45.286;9.900;2023-06-22T03:12:56;29.10;69.90
47805;DHT22;33568;45.286;9.900;2023-06-22T03:15:23;29.20;69.60
47805;DHT22;33568;45.286;9.900;2023-06-22T03:17:50;29.10;69.40
47805;DHT22;33568;45.286;9.900;2023-06-22T03:20:17;29.00;69.60
47805;DHT22;33568;45.286;9.900;2023-06-22T03:22:43;28.90;69.90
47805;DHT22;33568;45.286;9.900;2023-06-22T03:25:11;28.90;69.90
47805;DHT22;33568;45.286;9.900;2023-06-22T03:27:42;28.90;70.00
47805;DHT22;33568;45.286;9.900;2023-06-22T03:30:11;28.90;70.10
47805;DHT22;33568;45.286;9.900;2023-06-22T03:32:38;28.80;70.30
47805;DHT22;33568;45.286;9.900;2023-06-22T03:35:06;28.70;70.70
47805;DHT22;33568;45.286;9.900;2023-06-22T03:37:35;28.60;71.10
47805;DHT22;33568;45.286;9.900;2023-06-22T03:40:03;28.50;71.50
47805;DHT22;33568;45.286;9.900;2023-06-22T03:42:34;28.40;71.80
47805;DHT22;33568;45.286;9.900;2023-06-22T03:45:03;28.40;72.00
47805;DHT22;33568;45.286;9.900;2023-06-22T03:47:32;28.30;72.30
47805;DHT22;33568;45.286;9.900;2023-06-22T03:49:59;28.40;72.60
47805;DHT22;33568;45.286;9.900;2023-06-22T03:52:25;28.40;72.60
47805;DHT22;33568;45.286;9.900;2023-06-22T03:54:52;28.30;72.70
47805;DHT22;33568;45.286;9.900;2023-06-22T03:57:18;28.20;72.90
47805;DHT22;33568;45.286;9.900;2023-06-22T03:59:45;28.10;73.10
47805;DHT22;33568;45.286;9.900;2023-06-22T04:02:11;28.20;73.20
47805;DHT22;33568;45.286;9.900;2023-06-22T04:04:38;28.10;73.30
47805;DHT22;33568;45.286;9.900;2023-06-22T04:07:05;28.10;73.50
47805;DHT22;33568;45.286;9.900;2023-06-22T04:09:32;28.10;73.70
47805;DHT22;33568;45.286;9.900;2023-06-22T04:11:58;28.00;73.80
47805;DHT22;33568;45.286;9.900;2023-06-22T04:14:24;28.00;74.00
47805;DHT22;33568;45.286;9.900;2023-06-22T04:16:51;28.00;74.10
47805;DHT22;33568;45.286;9.900;2023-06-22T04:19:18;27.90;74.10
47805;DHT22;33568;45.286;9.900;2023-06-22T04:21:44;28.00;74.20
47805;DHT22;33568;45.286;9.900;2023-06-22T04:24:11;27.90;74.10
47805;DHT22;33568;45.286;9.900;2023-06-22T04:26:38;28.00;74.10
47805;DHT22;33568;45.286;9.900;2023-06-22T04:29:08;28.00;74.00
47805;DHT22;33568;45.286;9.900;2023-06-22T04:31:37;28.00;73.70
47805;DHT22;33568;45.286;9.900;2023-06-22T04:34:05;27.90;73.70
47805;DHT22;33568;45.286;9.900;2023-06-22T04:36:41;27.90;73.80
47805;DHT22;33568;45.286;9.900;2023-06-22T04:39:11;27.90;73.80
47805;DHT22;33568;45.286;9.900;2023-06-22T04:41:39;27.90;73.60
47805;DHT22;33568;45.286;9.900;2023-06-22T04:44:12;27.90;73.80
47805;DHT22;33568;45.286;9.900;2023-06-22T04:46:39;28.00;73.80
47805;DHT22;33568;45.286;9.900;2023-06-22T04:49:07;28.10;73.50
47805;DHT22;33568;45.286;9.900;2023-06-22T04:51:39;28.10;72.90
47805;DHT22;33568;45.286;9.900;2023-06-22T04:54:06;28.10;72.70
47805;DHT22;33568;45.286;9.900;2023-06-22T04:56:33;28.10;72.80
47805;DHT22;33568;45.286;9.900;2023-06-22T04:59:00;28.20;72.80
47805;DHT22;33568;45.286;9.900;2023-06-22T05:01:26;28.20;72.70
47805;DHT22;33568;45.286;9.900;2023-06-22T05:03:53;28.20;72.40
47805;DHT22;33568;45.286;9.900;2023-06-22T05:06:23;28.20;72.10
47805;DHT22;33568;45.286;9.900;2023-06-22T05:08:57;28.30;72.00
47805;DHT22;33568;45.286;9.900;2023-06-22T05:11:27;28.40;71.90
47805;DHT22;33568;45.286;9.900;2023-06-22T05:13:54;28.40;71.60
47805;DHT22;33568;45.286;9.900;2023-06-22T05:16:21;28.50;71.40
47805;DHT22;33568;45.286;9.900;2023-06-22T05:18:55;28.70;71.10
47805;DHT22;33568;45.286;9.900;2023-06-22T05:21:23;28.80;70.60
47805;DHT22;33568;45.286;9.900;2023-06-22T05:23:51;28.90;70.20
47805;DHT22;33568;45.286;9.900;2023-06-22T05:26:19;29.10;69.90
47805;DHT22;33568;45.286;9.900;2023-06-22T05:28:46;29.20;69.30
47805;DHT22;33568;45.286;9.900;2023-06-22T05:31:16;29.30;68.80
47805;DHT22;33568;45.286;9.900;2023-06-22T05:33:43;29.30;68.40
47805;DHT22;33568;45.286;9.900;2023-06-22T05:36:10;29.40;68.20
47805;DHT22;33568;45.286;9.900;2023-06-22T05:38:36;29.50;68.00
47805;DHT22;33568;45.286;9.900;2023-06-22T05:41:03;29.50;67.80
47805;DHT22;33568;45.286;9.900;2023-06-22T05:43:30;29.60;67.50
47805;DHT22;33568;45.286;9.900;2023-06-22T05:45:57;29.70;67.10
47805;DHT22;33568;45.286;9.900;2023-06-22T05:48:23;29.70;66.90
47805;DHT22;33568;45.286;9.900;2023-06-22T05:50:50;29.70;66.80
47805;DHT22;33568;45.286;9.900;2023-06-22T05:53:16;29.70;66.70
47805;DHT22;33568;45.286;9.900;2023-06-22T05:55:43;29.70;66.60
47805;DHT22;33568;45.286;9.900;2023-06-22T05:58:10;29.70;66.60
47805;DHT22;33568;45.286;9.900;2023-06-22T06:00:37;29.70;66.60
47805;DHT22;33568;45.286;9.900;2023-06-22T06:03:03;29.70;66.70
47805;DHT22;33568;45.286;9.900;2023-06-22T06:05:30;29.60;66.80
47805;DHT22;33568;45.286;9.900;2023-06-22T06:07:58;29.60;66.80
47805;DHT22;33568;45.286;9.900;2023-06-22T06:10:25;29.60;66.90
47805;DHT22;33568;45.286;9.900;2023-06-22T06:12:52;29.50;66.80
47805;DHT22;33568;45.286;9.900;2023-06-22T06:15:18;29.50;66.90
47805;DHT22;33568;45.286;9.900;2023-06-22T06:17:49;29.60;67.00
47805;DHT22;33568;45.286;9.900;2023-06-22T06:20:19;29.70;66.90
47805;DHT22;33568;45.286;9.900;2023-06-22T06:22:46;29.80;66.60
47805;DHT22;33568;45.286;9.900;2023-06-22T06:25:13;29.90;66.30
47805;DHT22;33568;45.286;9.900;2023-06-22T06:27:43;30.10;66.10
47805;DHT22;33568;45.286;9.900;2023-06-22T06:30:11;30.30;65.70
47805;DHT22;33568;45.286;9.900;2023-06-22T06:32:38;30.40;65.20
47805;DHT22;33568;45.286;9.900;2023-06-22T06:35:06;30.50;65.00
47805;DHT22;33568;45.286;9.900;2023-06-22T06:37:36;30.50;64.70
47805;DHT22;33568;45.286;9.900;2023-06-22T06:40:04;30.30;64.70
47805;DHT22;33568;45.286;9.900;2023-06-22T06:42:33;30.30;64.80
47805;DHT22;33568;45.286;9.900;2023-06-22T06:44:59;30.40;64.70
47805;DHT22;33568;45.286;9.900;2023-06-22T06:47:26;30.50;64.60
47805;DHT22;33568;45.286;9.900;2023-06-22T06:49:52;30.60;64.40
47805;DHT22;33568;45.286;9.900;2023-06-22T06:52:19;30.80;64.30
47805;DHT22;33568;45.286;9.900;2023-06-22T06:54:46;30.80;63.90
47805;DHT22;33568;45.286;9.900;2023-06-22T06:57:12;30.70;63.80
47805;DHT22;33568;45.286;9.900;2023-06-22T06:59:39;30.60;63.80
47805;DHT22;33568;45.286;9.900;2023-06-22T07:02:06;30.50;63.90
47805;DHT22;33568;45.286;9.900;2023-06-22T07:04:32;30.40;64.10
47805;DHT22;33568;45.286;9.900;2023-06-22T07:07:01;30.40;64.10
47805;DHT22;33568;45.286;9.900;2023-06-22T07:09:28;30.40;64.20
47805;DHT22;33568;45.286;9.900;2023-06-22T07:11:54;30.50;64.40
47805;DHT22;33568;45.286;9.900;2023-06-22T07:14:21;30.40;64.40
47805;DHT22;33568;45.286;9.900;2023-06-22T07:16:47;30.30;64.70
47805;DHT22;33568;45.286;9.900;2023-06-22T07:19:13;30.30;65.10
47805;DHT22;33568;45.286;9.900;2023-06-22T07:21:40;30.20;65.40
47805;DHT22;33568;45.286;9.900;2023-06-22T07:24:07;30.10;65.60
47805;DHT22;33568;45.286;9.900;2023-06-22T07:26:34;30.10;65.70
47805;DHT22;33568;45.286;9.900;2023-06-22T07:29:00;30.10;65.90
47805;DHT22;33568;45.286;9.900;2023-06-22T07:31:27;30.20;65.90
47805;DHT22;33568;45.286;9.900;2023-06-22T07:33:53;30.30;65.70
47805;DHT22;33568;45.286;9.900;2023-06-22T07:36:20;30.60;65.30
47805;DHT22;33568;45.286;9.900;2023-06-22T07:38:46;30.80;64.80
47805;DHT22;33568;45.286;9.900;2023-06-22T07:41:13;30.90;64.60
47805;DHT22;33568;45.286;9.900;2023-06-22T07:43:40;31.10;64.30
47805;DHT22;33568;45.286;9.900;2023-06-22T07:46:06;31.20;64.10
47805;DHT22;33568;45.286;9.900;2023-06-22T07:48:33;31.40;63.80
47805;DHT22;33568;45.286;9.900;2023-06-22T07:51:02;31.70;63.40
47805;DHT22;33568;45.286;9.900;2023-06-22T07:53:29;31.80;63.10
47805;DHT22;33568;45.286;9.900;2023-06-22T07:55:55;31.90;62.70
47805;DHT22;33568;45.286;9.900;2023-06-22T07:58:22;32.00;62.70
47805;DHT22;33568;45.286;9.900;2023-06-22T08:00:48;32.10;62.50
47805;DHT22;33568;45.286;9.900;2023-06-22T08:03:15;32.20;62.30
47805;DHT22;33568;45.286;9.900;2023-06-22T08:05:42;32.30;63.00
47805;DHT22;33568;45.286;9.900;2023-06-22T08:08:08;32.30;62.90
47805;DHT22;33568;45.286;9.900;2023-06-22T08:10:35;32.40;62.50
47805;DHT22;33568;45.286;9.900;2023-06-22T08:13:02;32.40;62.50
47805;DHT22;33568;45.286;9.900;2023-06-22T08:15:28;32.50;63.00
47805;DHT22;33568;45.286;9.900;2023-06-22T08:17:55;32.50;62.80
47805;DHT22;33568;45.286;9.900;2023-06-22T08:20:22;32.60;62.40
47805;DHT22;33568;45.286;9.900;2023-06-22T08:22:48;32.70;62.10
47805;DHT22;33568;45.286;9.900;2023-06-22T08:25:15;32.90;62.00
47805;DHT22;33568;45.286;9.900;2023-06-22T08:27:48;32.90;62.00
47805;DHT22;33568;45.286;9.900;2023-06-22T08:30:15;32.90;61.90
47805;DHT22;33568;45.286;9.900;2023-06-22T08:32:41;33.00;61.80
47805;DHT22;33568;45.286;9.900;2023-06-22T08:35:08;33.00;61.60
47805;DHT22;33568;45.286;9.900;2023-06-22T08:37:35;33.00;61.50
47805;DHT22;33568;45.286;9.900;2023-06-22T08:40:04;33.10;61.90
47805;DHT22;33568;45.286;9.900;2023-06-22T08:42:33;33.10;61.80
47805;DHT22;33568;45.286;9.900;2023-06-22T08:44:59;33.20;61.90
47805;DHT22;33568;45.286;9.900;2023-06-22T08:47:29;33.10;62.10
47805;DHT22;33568;45.286;9.900;2023-06-22T08:49:55;33.10;62.20
47805;DHT22;33568;45.286;9.900;2023-06-22T08:52:23;33.20;62.40
47805;DHT22;33568;45.286;9.900;2023-06-22T08:54:50;33.30;61.90
47805;DHT22;33568;45.286;9.900;2023-06-22T08:57:17;33.40;61.20
47805;DHT22;33568;45.286;9.900;2023-06-22T08:59:44;33.50;60.70
47805;DHT22;33568;45.286;9.900;2023-06-22T09:02:10;33.60;60.00
47805;DHT22;33568;45.286;9.900;2023-06-22T09:04:37;33.70;59.70
47805;DHT22;33568;45.286;9.900;2023-06-22T09:07:03;33.70;59.50
47805;DHT22;33568;45.286;9.900;2023-06-22T09:09:30;33.80;59.00
47805;DHT22;33568;45.286;9.900;2023-06-22T09:11:56;33.80;58.80
47805;DHT22;33568;45.286;9.900;2023-06-22T09:14:23;33.90;58.90
47805;DHT22;33568;45.286;9.900;2023-06-22T09:16:49;34.10;58.20
47805;DHT22;33568;45.286;9.900;2023-06-22T09:19:16;34.20;57.60
47805;DHT22;33568;45.286;9.900;2023-06-22T09:21:42;34.30;57.70
47805;DHT22;33568;45.286;9.900;2023-06-22T09:24:08;34.50;57.50
47805;DHT22;33568;45.286;9.900;2023-06-22T09:26:35;34.60;57.30
47805;DHT22;33568;45.286;9.900;2023-06-22T09:29:01;34.50;57.20
47805;DHT22;33568;45.286;9.900;2023-06-22T09:31:31;34.50;57.60
47805;DHT22;33568;45.286;9.900;2023-06-22T09:33:58;34.80;57.50
47805;DHT22;33568;45.286;9.900;2023-06-22T09:36:24;34.50;56.90
47805;DHT22;33568;45.286;9.900;2023-06-22T09:38:50;34.50;57.50
47805;DHT22;33568;45.286;9.900;2023-06-22T09:41:25;34.60;58.20
47805;DHT22;33568;45.286;9.900;2023-06-22T09:43:52;34.70;56.90
47805;DHT22;33568;45.286;9.900;2023-06-22T09:46:18;34.50;56.00
47805;DHT22;33568;45.286;9.900;2023-06-22T09:48:47;34.30;56.00
47805;DHT22;33568;45.286;9.900;2023-06-22T09:51:14;34.40;56.40
47805;DHT22;33568;45.286;9.900;2023-06-22T09:53:41;34.50;56.20
47805;DHT22;33568;45.286;9.900;2023-06-22T09:56:07;34.60;56.10
47805;DHT22;33568;45.286;9.900;2023-06-22T09:58:37;34.70;56.10
47805;DHT22;33568;45.286;9.900;2023-06-22T10:01:03;34.90;56.30
47805;DHT22;33568;45.286;9.900;2023-06-22T10:03:30;35.10;56.40
47805;DHT22;33568;45.286;9.900;2023-06-22T10:05:56;35.30;55.90
47805;DHT22;33568;45.286;9.900;2023-06-22T10:08:23;35.40;55.60
47805;DHT22;33568;45.286;9.900;2023-06-22T10:10:49;35.60;55.20
47805;DHT22;33568;45.286;9.900;2023-06-22T10:13:15;35.60;55.00
47805;DHT22;33568;45.286;9.900;2023-06-22T10:15:42;35.70;55.10
47805;DHT22;33568;45.286;9.900;2023-06-22T10:18:09;35.90;54.80
47805;DHT22;33568;45.286;9.900;2023-06-22T10:20:35;36.10;55.40
47805;DHT22;33568;45.286;9.900;2023-06-22T10:23:02;36.30;54.60
47805;DHT22;33568;45.286;9.900;2023-06-22T10:25:28;36.60;54.50
47805;DHT22;33568;45.286;9.900;2023-06-22T10:27:55;36.80;54.40
47805;DHT22;33568;45.286;9.900;2023-06-22T10:30:21;36.80;54.40
47805;DHT22;33568;45.286;9.900;2023-06-22T10:32:47;36.80;53.90
47805;DHT22;33568;45.286;9.900;2023-06-22T10:35:14;36.80;53.50
47805;DHT22;33568;45.286;9.900;2023-06-22T10:37:45;36.90;53.50
47805;DHT22;33568;45.286;9.900;2023-06-22T10:40:16;36.80;53.10
47805;DHT22;33568;45.286;9.900;2023-06-22T10:42:42;36.80;53.00
47805;DHT22;33568;45.286;9.900;2023-06-22T10:45:09;37.00;53.00
47805;DHT22;33568;45.286;9.900;2023-06-22T10:47:36;37.30;53.00
47805;DHT22;33568;45.286;9.900;2023-06-22T10:50:03;37.40;52.60
47805;DHT22;33568;45.286;9.900;2023-06-22T10:52:30;37.50;52.50
47805;DHT22;33568;45.286;9.900;2023-06-22T10:54:57;37.60;52.90
47805;DHT22;33568;45.286;9.900;2023-06-22T10:57:23;37.50;52.20
47805;DHT22;33568;45.286;9.900;2023-06-22T10:59:50;37.60;52.10
47805;DHT22;33568;45.286;9.900;2023-06-22T11:02:16;37.50;52.30
47805;DHT22;33568;45.286;9.900;2023-06-22T11:04:43;37.50;52.50
47805;DHT22;33568;45.286;9.900;2023-06-22T11:07:10;37.40;52.70
47805;DHT22;33568;45.286;9.900;2023-06-22T11:09:37;37.30;52.70
47805;DHT22;33568;45.286;9.900;2023-06-22T11:12:06;37.30;52.70
47805;DHT22;33568;45.286;9.900;2023-06-22T11:14:32;37.30;52.70
47805;DHT22;33568;45.286;9.900;2023-06-22T11:17:01;37.30;52.60
47805;DHT22;33568;45.286;9.900;2023-06-22T11:19:28;37.30;53.10
47805;DHT22;33568;45.286;9.900;2023-06-22T11:21:54;37.20;52.40
47805;DHT22;33568;45.286;9.900;2023-06-22T11:24:21;37.20;52.20
47805;DHT22;33568;45.286;9.900;2023-06-22T11:26:47;37.40;52.50
47805;DHT22;33568;45.286;9.900;2023-06-22T11:29:14;37.50;51.60
47805;DHT22;33568;45.286;9.900;2023-06-22T11:31:40;37.40;51.20
47805;DHT22;33568;45.286;9.900;2023-06-22T11:34:08;37.20;51.00
47805;DHT22;33568;45.286;9.900;2023-06-22T11:36:35;37.00;50.60
47805;DHT22;33568;45.286;9.900;2023-06-22T11:39:02;36.80;51.20
47805;DHT22;33568;45.286;9.900;2023-06-22T11:41:28;36.80;51.50
47805;DHT22;33568;45.286;9.900;2023-06-22T11:43:55;36.60;50.90
47805;DHT22;33568;45.286;9.900;2023-06-22T11:46:21;36.60;50.50
47805;DHT22;33568;45.286;9.900;2023-06-22T11:48:47;36.70;50.10
47805;DHT22;33568;45.286;9.900;2023-06-22T11:51:14;36.80;49.90
47805;DHT22;33568;45.286;9.900;2023-06-22T11:53:40;37.00;49.80
47805;DHT22;33568;45.286;9.900;2023-06-22T11:56:07;37.20;49.80
47805;DHT22;33568;45.286;9.900;2023-06-22T11:58:33;37.30;49.50
47805;DHT22;33568;45.286;9.900;2023-06-22T12:01:00;37.50;49.70
47805;DHT22;33568;45.286;9.900;2023-06-22T12:03:26;37.70;50.60
47805;DHT22;33568;45.286;9.900;2023-06-22T12:05:53;37.80;50.10
47805;DHT22;33568;45.286;9.900;2023-06-22T12:08:21;37.70;50.00
47805;DHT22;33568;45.286;9.900;2023-06-22T12:10:49;37.70;50.10
47805;DHT22;33568;45.286;9.900;2023-06-22T12:13:16;37.80;49.70
47805;DHT22;33568;45.286;9.900;2023-06-22T12:15:42;38.00;49.30
47805;DHT22;33568;45.286;9.900;2023-06-22T12:18:08;38.10;49.30
47805;DHT22;33568;45.286;9.900;2023-06-22T12:20:35;38.20;49.60
47805;DHT22;33568;45.286;9.900;2023-06-22T12:23:01;38.20;50.30
47805;DHT22;33568;45.286;9.900;2023-06-22T12:25:28;38.20;50.00
47805;DHT22;33568;45.286;9.900;2023-06-22T12:27:54;38.10;49.80
47805;DHT22;33568;45.286;9.900;2023-06-22T12:30:21;38.00;49.60
47805;DHT22;33568;45.286;9.900;2023-06-22T12:32:47;38.00;50.00
47805;DHT22;33568;45.286;9.900;2023-06-22T12:35:14;38.00;50.00
47805;DHT22;33568;45.286;9.900;2023-06-22T12:37:41;38.00;50.40
47805;DHT22;33568;45.286;9.900;2023-06-22T12:40:09;38.00;49.70
47805;DHT22;33568;45.286;9.900;2023-06-22T12:42:36;37.80;49.00
47805;DHT22;33568;45.286;9.900;2023-06-22T12:45:03;37.70;49.30
47805;DHT22;33568;45.286;9.900;2023-06-22T12:47:31;37.60;49.70
47805;DHT22;33568;45.286;9.900;2023-06-22T12:49:57;37.80;49.80
47805;DHT22;33568;45.286;9.900;2023-06-22T12:52:24;37.90;49.60
47805;DHT22;33568;45.286;9.900;2023-06-22T12:54:50;37.90;49.00
47805;DHT22;33568;45.286;9.900;2023-06-22T12:57:17;37.90;48.30
47805;DHT22;33568;45.286;9.900;2023-06-22T12:59:43;37.80;48.60
47805;DHT22;33568;45.286;9.900;2023-06-22T13:02:10;37.70;48.60
47805;DHT22;33568;45.286;9.900;2023-06-22T13:04:36;37.70;48.80
47805;DHT22;33568;45.286;9.900;2023-06-22T13:07:03;37.60;49.10
47805;DHT22;33568;45.286;9.900;2023-06-22T13:09:31;37.50;50.30
47805;DHT22;33568;45.286;9.900;2023-06-22T13:11:57;37.30;50.20
47805;DHT22;33568;45.286;9.900;2023-06-22T13:14:23;37.20;50.30
47805;DHT22;33568;45.286;9.900;2023-06-22T13:16:50;37.20;50.00
47805;DHT22;33568;45.286;9.900;2023-06-22T13:19:16;37.10;49.80
47805;DHT22;33568;45.286;9.900;2023-06-22T13:21:43;37.00;50.50
47805;DHT22;33568;45.286;9.900;2023-06-22T13:24:09;37.00;50.70
47805;DHT22;33568;45.286;9.900;2023-06-22T13:26:36;37.10;51.60
47805;DHT22;33568;45.286;9.900;2023-06-22T13:29:02;37.20;51.00
47805;DHT22;33568;45.286;9.900;2023-06-22T13:31:29;37.20;51.20
47805;DHT22;33568;45.286;9.900;2023-06-22T13:33:55;37.20;51.00
47805;DHT22;33568;45.286;9.900;2023-06-22T13:36:22;37.20;50.50
47805;DHT22;33568;45.286;9.900;2023-06-22T13:38:49;37.10;50.50
47805;DHT22;33568;45.286;9.900;2023-06-22T13:41:16;37.10;50.50
47805;DHT22;33568;45.286;9.900;2023-06-22T13:43:42;37.00;50.20
47805;DHT22;33568;45.286;9.900;2023-06-22T13:46:09;36.90;50.70
47805;DHT22;33568;45.286;9.900;2023-06-22T13:48:35;36.80;51.70
47805;DHT22;33568;45.286;9.900;2023-06-22T13:51:01;36.80;52.50
47805;DHT22;33568;45.286;9.900;2023-06-22T13:53:28;36.70;52.30
47805;DHT22;33568;45.286;9.900;2023-06-22T13:55:55;36.60;52.40
47805;DHT22;33568;45.286;9.900;2023-06-22T13:58:22;36.60;52.50
47805;DHT22;33568;45.286;9.900;2023-06-22T14:00:48;36.60;52.70
47805;DHT22;33568;45.286;9.900;2023-06-22T14:03:15;36.50;51.80
47805;DHT22;33568;45.286;9.900;2023-06-22T14:05:44;36.40;51.50
47805;DHT22;33568;45.286;9.900;2023-06-22T14:08:11;36.40;51.40
47805;DHT22;33568;45.286;9.900;2023-06-22T14:10:38;36.30;51.20
47805;DHT22;33568;45.286;9.900;2023-06-22T14:13:04;36.40;51.40
47805;DHT22;33568;45.286;9.900;2023-06-22T14:15:32;36.50;51.90
47805;DHT22;33568;45.286;9.900;2023-06-22T14:17:58;36.50;51.90
47805;DHT22;33568;45.286;9.900;2023-06-22T14:20:25;36.60;52.10
47805;DHT22;33568;45.286;9.900;2023-06-22T14:22:51;36.50;52.00
47805;DHT22;33568;45.286;9.900;2023-06-22T14:25:18;36.60;53.10
47805;DHT22;33568;45.286;9.900;2023-06-22T14:27:44;36.60;53.80
47805;DHT22;33568;45.286;9.900;2023-06-22T14:30:11;36.60;54.00
47805;DHT22;33568;45.286;9.900;2023-06-22T14:32:37;36.70;53.10
47805;DHT22;33568;45.286;9.900;2023-06-22T14:35:04;36.70;53.50
47805;DHT22;33568;45.286;9.900;2023-06-22T14:37:30;36.60;53.90
47805;DHT22;33568;45.286;9.900;2023-06-22T14:39:57;36.50;54.00
47805;DHT22;33568;45.286;9.900;2023-06-22T14:42:23;36.60;54.40
47805;DHT22;33568;45.286;9.900;2023-06-22T14:44:52;36.60;54.20
47805;DHT22;33568;45.286;9.900;2023-06-22T14:47:19;36.50;54.50
47805;DHT22;33568;45.286;9.900;2023-06-22T14:49:45;36.50;54.70
47805;DHT22;33568;45.286;9.900;2023-06-22T14:52:12;36.40;54.10
47805;DHT22;33568;45.286;9.900;2023-06-22T14:54:40;36.40;53.70
47805;DHT22;33568;45.286;9.900;2023-06-22T14:57:06;36.20;53.40
47805;DHT22;33568;45.286;9.900;2023-06-22T14:59:33;36.20;53.60
47805;DHT22;33568;45.286;9.900;2023-06-22T15:01:59;36.20;53.60
47805;DHT22;33568;45.286;9.900;2023-06-22T15:04:25;36.20;53.70
47805;DHT22;33568;45.286;9.900;2023-06-22T15:06:57;36.20;53.80
47805;DHT22;33568;45.286;9.900;2023-06-22T15:09:24;36.10;53.80
47805;DHT22;33568;45.286;9.900;2023-06-22T15:11:50;36.10;53.90
47805;DHT22;33568;45.286;9.900;2023-06-22T15:14:17;36.00;53.70
47805;DHT22;33568;45.286;9.900;2023-06-22T15:16:44;36.00;53.80
47805;DHT22;33568;45.286;9.900;2023-06-22T15:19:10;35.90;53.80
47805;DHT22;33568;45.286;9.900;2023-06-22T15:21:38;35.80;54.20
47805;DHT22;33568;45.286;9.900;2023-06-22T15:24:05;35.80;54.50
47805;DHT22;33568;45.286;9.900;2023-06-22T15:26:32;35.80;54.50
47805;DHT22;33568;45.286;9.900;2023-06-22T15:28:58;35.70;54.60
47805;DHT22;33568;45.286;9.900;2023-06-22T15:31:26;35.70;54.40
47805;DHT22;33568;45.286;9.900;2023-06-22T15:33:53;35.60;54.50